Time;durP1;ratioP1;P1;durP2;ratioP2;P2;SDS_P1;SDS_P2;PMS_P1;PMS_P2;Temp;Humidity;BMP_temperature;BMP_pressure;BME280_temperature;BME280_humidity;BME280_pressure;Samples;Min_cycle;Max_cycle;Signal;HPM_P1;HPM_P2
2022/09/13 00:00:49;;;;;;;;;11.33;10.00;;;;;22.77;79.59;100211.38;4850930;29;46767;-83
2022/09/13 00:03:14;;;;;;;;;9.67;8.00;;;;;22.77;80.24;100214.97;4849744;29;45492;-83
2022/09/13 00:05:40;;;;;;;;;9.00;8.00;;;;;22.76;80.23;100215.03;4866975;29;45469;-83
2022/09/13 00:08:06;;;;;;;;;9.00;9.00;;;;;22.69;79.46;100211.72;4865970;29;44922;-83
2022/09/13 00:10:37;;;;;;;;;8.00;8.00;;;;;22.75;79.21;100221.41;4867062;29;45520;-83
2022/09/13 00:13:05;;;;;;;;;12.00;10.00;;;;;22.67;80.15;100219.03;4867068;29;45425;-83
2022/09/13 00:15:31;;;;;;;;;9.33;8.00;;;;;22.67;80.51;100223.59;4868654;29;45526;-83
2022/09/13 00:17:56;;;;;;;;;11.00;11.00;;;;;22.65;80.96;100222.78;4869082;29;45456;-83
2022/09/13 00:20:22;;;;;;;;;11.33;10.00;;;;;22.61;81.74;100223.84;4868099;29;45048;-83
2022/09/13 00:22:47;;;;;;;;;10.33;10.33;;;;;22.59;81.71;100221.22;4866681;29;45409;-83
2022/09/13 00:25:13;;;;;;;;;11.00;11.00;;;;;22.57;82.54;100218.56;4868267;29;45659;-83
2022/09/13 00:27:38;;;;;;;;;11.00;11.00;;;;;22.55;82.60;100208.75;4867797;29;45366;-83
2022/09/13 00:30:05;;;;;;;;;12.67;11.67;;;;;22.52;83.28;100206.16;4867014;29;46781;-83
2022/09/13 00:32:31;;;;;;;;;13.33;12.67;;;;;22.51;83.16;100198.97;4865660;29;45302;-84
2022/09/13 00:34:57;;;;;;;;;12.00;12.00;;;;;22.47;83.88;100187.38;4866643;29;45465;-84
2022/09/13 00:37:22;;;;;;;;;10.33;10.00;;;;;22.45;84.26;100181.16;4865747;29;45178;-84
2022/09/13 00:39:48;;;;;;;;;10.67;10.67;;;;;22.42;83.76;100174.97;4865704;29;45559;-84
2022/09/13 00:42:14;;;;;;;;;10.00;10.00;;;;;22.44;84.49;100174.00;4866546;29;44939;-83
2022/09/13 00:44:59;;;;;;;;;8.67;8.67;;;;;22.42;83.93;100175.88;4866043;29;45347;-82
2022/09/13 00:47:50;;;;;;;;;10.33;10.00;;;;;22.41;83.75;100176.81;4868242;29;45394;-82
2022/09/13 00:50:37;;;;;;;;;12.33;10.33;;;;;22.42;83.11;100181.31;4865770;29;46888;-82
2022/09/13 00:53:11;;;;;;;;;11.00;10.33;;;;;22.41;83.54;100184.06;4866812;29;45547;-85
2022/09/13 00:55:42;;;;;;;;;10.67;10.67;;;;;22.42;83.22;100186.72;4865502;29;45447;-83
2022/09/13 00:58:15;;;;;;;;;13.67;11.00;;;;;22.45;83.25;100186.56;4867245;29;45397;-83
2022/09/13 01:00:40;;;;;;;;;9.67;9.00;;;;;22.46;83.70;100182.94;4866582;29;45538;-83
2022/09/13 01:03:10;;;;;;;;;10.67;10.00;;;;;22.47;84.01;100179.25;4866411;29;45771;-83
2022/09/13 01:05:41;;;;;;;;;10.33;10.00;;;;;22.51;84.48;100178.19;4867352;29;44801;-82
2022/09/13 01:08:13;;;;;;;;;10.00;10.00;;;;;22.48;84.32;100180.13;4871274;29;45383;-82
2022/09/13 01:10:40;;;;;;;;;12.00;12.00;;;;;22.46;84.81;100166.69;4870848;29;47366;-82
2022/09/13 01:13:16;;;;;;;;;10.67;9.33;;;;;22.45;84.51;100164.91;4870017;29;45495;-83
2022/09/13 01:15:42;;;;;;;;;9.33;9.00;;;;;22.40;85.29;100150.69;4870485;29;45498;-83
2022/09/13 01:18:10;;;;;;;;;12.33;12.33;;;;;22.40;85.31;100150.69;4871865;29;45412;-83
2022/09/13 01:21:14;;;;;;;;;10.00;10.00;;;;;22.41;85.17;100157.84;4869598;29;47191;-84
2022/09/13 01:24:33;;;;;;;;;10.00;10.00;;;;;22.37;85.78;100145.41;4869745;29;45728;-83
2022/09/13 01:27:02;;;;;;;;;8.67;8.00;;;;;22.43;85.72;100150.53;4831368;29;45383;-83
2022/09/13 01:30:01;;;;;;;;;10.00;10.00;;;;;22.44;86.49;100146.91;4830709;29;45436;-84
2022/09/13 01:32:42;;;;;;;;;11.00;10.33;;;;;22.46;86.16;100145.00;4831361;29;47704;-84
2022/09/13 01:35:35;;;;;;;;;11.67;10.67;;;;;22.47;85.86;100154.88;4831936;29;45365;-85
2022/09/13 01:38:25;;;;;;;;;10.00;10.00;;;;;22.49;85.97;100155.69;4829665;29;45515;-83
2022/09/13 01:40:51;;;;;;;;;12.33;9.67;;;;;22.49;86.62;100150.25;4830290;29;45851;-84
2022/09/13 01:43:47;;;;;;;;;11.33;10.67;;;;;22.50;85.84;100146.63;4829522;29;47259;-84
2022/09/13 01:46:21;;;;;;;;;12.00;12.00;;;;;22.45;85.66;100135.09;4830655;29;45616;-84
2022/09/13 01:49:03;;;;;;;;;12.00;11.00;;;;;22.43;85.89;100128.88;4829202;29;45403;-84
2022/09/13 01:51:44;;;;;;;;;9.33;9.00;;;;;22.42;86.13;100132.53;4829610;29;45518;-84
2022/09/13 01:54:31;;;;;;;;;11.00;10.00;;;;;22.41;85.93;100130.75;4828940;29;46587;-84
2022/09/13 01:57:13;;;;;;;;;11.00;11.00;;;;;22.43;87.06;100120.75;4829654;29;45538;-84
2022/09/13 01:59:49;;;;;;;;;10.33;9.67;;;;;22.37;86.52;100116.47;4830105;29;45375;-84
2022/09/13 02:02:25;;;;;;;;;11.33;11.33;;;;;22.43;87.02;100125.28;4835468;29;45565;-84
2022/09/13 02:05:01;;;;;;;;;10.00;10.00;;;;;22.39;86.73;100124.53;4867218;29;47138;-84
2022/09/13 02:07:32;;;;;;;;;10.00;10.00;;;;;22.36;86.88;100119.28;4867687;29;45395;-84
2022/09/13 02:10:05;;;;;;;;;11.00;11.00;;;;;22.33;87.24;100116.69;4868426;29;45601;-84
2022/09/13 02:12:33;;;;;;;;;10.00;10.00;;;;;22.28;87.35;100108.75;4870398;29;44861;-84
2022/09/13 02:15:11;;;;;;;;;10.00;10.00;;;;;22.30;87.79;100119.50;4868525;29;47884;-84
2022/09/13 02:17:40;;;;;;;;;10.00;10.00;;;;;22.24;88.12;100109.84;4867591;29;45432;-84
2022/09/13 02:20:20;;;;;;;;;12.00;10.00;;;;;22.23;88.55;100107.16;4875503;29;45664;-84
2022/09/13 02:22:53;;;;;;;;;9.67;9.33;;;;;22.23;88.65;100110.75;4867633;29;45634;-84
2022/09/13 02:25:22;;;;;;;;;8.67;8.00;;;;;22.21;89.19;100104.53;4851876;29;48300;-84
2022/09/13 02:27:53;;;;;;;;;12.00;11.67;;;;;22.15;89.72;100100.25;4867687;29;45556;-84
2022/09/13 02:30:21;;;;;;;;;10.67;10.67;;;;;22.15;89.16;100102.09;4869692;29;45538;-84
2022/09/13 02:33:00;;;;;;;;;10.67;10.00;;;;;22.15;89.78;100102.97;4867998;29;45522;-84
2022/09/13 02:35:33;;;;;;;;;11.33;11.33;;;;;22.12;90.07;100096.81;4868616;29;45335;-84
2022/09/13 02:44:46;;;;;;;;;11.33;11.33;;;;;22.11;90.09;100084.22;4872526;29;45421;-84
2022/09/13 02:47:30;;;;;;;;;9.33;9.33;;;;;22.16;89.95;100096.63;4870247;29;47168;-84
2022/09/13 02:50:20;;;;;;;;;12.00;12.00;;;;;22.16;90.07;100093.91;4872530;29;45486;-84
2022/09/13 02:53:04;;;;;;;;;10.33;10.33;;;;;22.16;89.41;100088.47;4869521;29;45420;-84
2022/09/13 02:56:06;;;;;;;;;10.00;9.00;;;;;22.19;89.24;100092.88;4868940;29;45401;-84
2022/09/13 02:58:45;;;;;;;;;9.67;9.67;;;;;22.18;89.57;100080.31;4866170;29;47245;-84
2022/09/13 03:01:11;;;;;;;;;11.67;11.67;;;;;22.17;89.79;100078.53;4866862;29;45736;-84
2022/09/13 03:03:37;;;;;;;;;10.00;10.00;;;;;22.19;89.67;100079.34;4868619;29;44762;-85
2022/09/13 03:06:03;;;;;;;;;12.00;10.67;;;;;22.18;89.93;100081.16;4868442;29;45517;-85
2022/09/13 03:08:29;;;;;;;;;9.67;9.67;;;;;22.18;90.57;100080.31;4869462;29;47922;-84
2022/09/13 03:11:12;;;;;;;;;12.00;12.00;;;;;22.17;90.52;100081.22;4882315;29;45799;-84
2022/09/13 03:13:56;;;;;;;;;10.00;10.00;;;;;22.17;89.27;100075.81;4868695;29;45400;-85
2022/09/13 03:16:27;;;;;;;;;9.67;7.00;;;;;22.17;88.43;100079.41;4868670;29;45412;-84
2022/09/13 03:19:17;;;;;;;;;8.00;8.00;;;;;22.16;89.33;100069.53;4868582;29;48362;-85
2022/09/13 03:22:16;;;;;;;;;11.00;11.00;;;;;22.20;89.71;100072.06;4867013;29;44743;-84
2022/09/13 03:25:23;;;;;;;;;10.00;10.00;;;;;22.18;89.90;100075.75;4881056;29;45440;-84
2022/09/13 03:27:59;;;;;;;;;10.00;9.00;;;;;22.15;88.42;100075.88;4809546;29;45716;-84
2022/09/13 03:30:25;;;;;;;;;9.00;9.00;;;;;22.15;88.22;100078.59;4809754;29;45526;-84
2022/09/13 03:33:03;;;;;;;;;10.67;10.67;;;;;22.23;88.55;100101.75;4809035;29;45519;-85
2022/09/13 03:35:34;;;;;;;;;11.00;11.00;;;;;22.21;89.16;100101.81;4809700;29;45494;-84
2022/09/13 03:38:11;;;;;;;;;10.25;9.75;;;;;22.20;89.50;100094.66;4809047;29;45485;-84
2022/09/13 03:41:04;;;;;;;;;11.33;10.33;;;;;22.18;90.54;100105.56;4809555;29;46284;-84
2022/09/13 03:43:35;;;;;;;;;12.75;12.00;;;;;22.11;90.69;100095.91;4809254;29;45529;-85
2022/09/13 03:46:11;;;;;;;;;10.75;10.50;;;;;22.10;91.15;100099.59;4808615;29;45554;-85
2022/09/13 03:48:39;;;;;;;;;11.00;10.00;;;;;22.08;91.26;100090.66;4809253;29;45490;-83
2022/09/13 03:51:06;;;;;;;;;15.00;12.00;;;;;22.12;92.11;100102.25;4809234;29;47005;-85
2022/09/13 03:53:36;;;;;;;;;9.00;9.00;;;;;22.07;92.98;100093.41;4809324;29;45438;-85
2022/09/13 03:56:14;;;;;;;;;9.33;9.33;;;;;22.02;93.75;100092.75;4809545;29;45459;-84
2022/09/13 03:58:40;;;;;;;;;10.67;9.00;;;;;22.02;93.64;100096.34;4810263;29;45445;-84
2022/09/13 04:01:05;;;;;;;;;10.00;10.00;;;;;22.01;94.45;100093.69;4825255;29;47131;-84
2022/09/13 04:03:31;;;;;;;;;11.00;11.00;;;;;21.96;94.40;100088.47;4865517;29;45861;-84
2022/09/13 04:05:56;;;;;;;;;9.00;9.00;;;;;21.95;95.07;100094.81;4864801;29;45479;-84
2022/09/13 04:08:21;;;;;;;;;13.33;11.67;;;;;21.89;95.69;100098.69;4879966;29;45440;-84
2022/09/13 04:10:49;;;;;;;;;10.33;10.00;;;;;21.84;96.05;100084.47;4865410;29;46739;-84
2022/09/13 04:13:15;;;;;;;;;10.00;9.00;;;;;21.80;96.32;100081.97;4849351;29;45422;-84
2022/09/13 04:15:40;;;;;;;;;10.67;10.00;;;;;21.84;96.89;100081.78;4867100;29;45523;-84
2022/09/13 04:18:06;;;;;;;;;9.33;9.00;;;;;21.84;97.38;100086.31;4867428;29;45506;-84
2022/09/13 04:20:34;;;;;;;;;9.33;9.33;;;;;21.80;97.38;100079.28;4865156;29;48117;-84
2022/09/13 04:23:00;;;;;;;;;11.00;9.00;;;;;21.79;97.27;100083.78;4866963;29;44795;-84
2022/09/13 04:25:26;;;;;;;;;9.00;9.00;;;;;21.82;96.89;100096.31;4865751;29;45294;-84
2022/09/13 04:27:57;;;;;;;;;11.33;10.67;;;;;21.86;97.27;100112.38;4865442;29;45416;-84
2022/09/13 04:30:22;;;;;;;;;11.67;9.67;;;;;21.80;97.54;100098.22;4864764;29;46915;-84
2022/09/13 04:32:48;;;;;;;;;10.67;10.67;;;;;21.83;97.92;100095.38;4866236;29;45400;-84
2022/09/13 04:35:15;;;;;;;;;11.33;9.00;;;;;21.84;97.50;100098.00;4866745;29;45345;-84
2022/09/13 04:37:41;;;;;;;;;11.33;10.67;;;;;21.84;97.33;100098.00;4865997;29;45434;-84
2022/09/13 04:40:08;;;;;;;;;9.00;9.00;;;;;21.78;98.22;100092.88;4866423;29;47206;-84
2022/09/13 04:42:33;;;;;;;;;8.67;8.67;;;;;21.80;97.95;100095.50;4852120;29;45420;-84
2022/09/13 04:44:59;;;;;;;;;10.33;9.00;;;;;21.82;97.57;100093.63;4869023;29;45471;-84
2022/09/13 04:47:24;;;;;;;;;11.33;9.00;;;;;21.82;97.20;100104.44;4868603;29;45536;-84
2022/09/13 04:49:50;;;;;;;;;13.67;12.33;;;;;21.75;97.90;100109.22;4870703;29;45176;-84
2022/09/13 04:52:15;;;;;;;;;10.00;9.33;;;;;21.75;98.30;100120.94;4869678;29;45313;-84
2022/09/13 04:54:41;;;;;;;;;9.00;8.00;;;;;21.72;99.08;100129.19;4869208;29;45710;-84
2022/09/13 04:57:06;;;;;;;;;7.00;7.00;;;;;21.74;99.58;100135.41;4870803;29;45456;-84
2022/09/13 04:59:32;;;;;;;;;10.67;9.33;;;;;21.66;99.68;100123.16;4870725;29;46937;-84
2022/09/13 05:01:57;;;;;;;;;12.00;10.33;;;;;21.67;100.00;100130.31;4870203;29;45468;-84
2022/09/13 05:04:22;;;;;;;;;9.00;9.00;;;;;21.60;100.00;100127.00;4870270;29;45510;-84
2022/09/13 05:06:48;;;;;;;;;10.33;9.67;;;;;21.47;100.00;100117.59;4871445;29;45452;-84
2022/09/13 05:09:15;;;;;;;;;9.00;9.00;;;;;21.44;100.00;100102.38;4868849;29;46864;-83
2022/09/13 05:11:41;;;;;;;;;8.00;7.67;;;;;21.38;100.00;100102.59;4854130;29;45356;-83
2022/09/13 05:14:09;;;;;;;;;9.00;9.00;;;;;21.28;100.00;100107.50;4869988;29;45411;-83
2022/09/13 05:16:37;;;;;;;;;8.00;8.00;;;;;21.10;100.00;100090.19;4869977;29;45459;-83
2022/09/13 05:19:02;;;;;;;;;10.00;10.00;;;;;21.25;100.00;100121.16;4870831;29;47774;-83
2022/09/13 05:21:29;;;;;;;;;8.00;8.00;;;;;21.20;100.00;100117.75;4871843;29;45403;-83
2022/09/13 05:23:56;;;;;;;;;11.00;9.25;;;;;21.24;100.00;100122.09;4869496;29;45466;-83
2022/09/13 05:26:24;;;;;;;;;9.00;9.00;;;;;21.23;100.00;100112.22;4869718;29;45464;-83
2022/09/13 05:28:50;;;;;;;;;7.50;7.50;;;;;21.25;100.00;100113.06;4868956;29;47174;-83
2022/09/13 05:31:27;;;;;;;;;8.75;7.75;;;;;21.20;100.00;100108.75;4869825;29;45469;-83
2022/09/13 05:34:02;;;;;;;;;8.75;8.75;;;;;21.13;100.00;100118.94;4870077;29;45485;-83
2022/09/13 05:36:27;;;;;;;;;7.25;7.00;;;;;21.10;100.00;100111.81;4869487;29;45378;-83
2022/09/13 05:38:54;;;;;;;;;6.00;6.00;;;;;21.09;100.00;100111.91;4867914;29;47548;-83
2022/09/13 05:41:19;;;;;;;;;6.25;5.00;;;;;21.10;100.00;100119.94;4852379;29;45371;-83
2022/09/13 05:43:45;;;;;;;;;8.50;8.00;;;;;21.08;100.00;100123.66;4870751;29;45751;-84
2022/09/13 05:46:16;;;;;;;;;8.33;8.33;;;;;21.07;100.00;100116.50;4870096;29;45515;-83
2022/09/13 05:48:42;;;;;;;;;7.00;7.00;;;;;21.09;100.00;100114.59;4869646;29;47209;-83
2022/09/13 05:51:13;;;;;;;;;10.33;8.00;;;;;21.05;100.00;100113.84;4872151;29;45375;-82
2022/09/13 05:53:41;;;;;;;;;7.00;7.00;;;;;21.09;100.00;100120.00;4871496;29;45592;-84
2022/09/13 05:56:09;;;;;;;;;6.00;6.00;;;;;21.05;100.00;100096.75;4871600;29;45008;-83
2022/09/13 05:58:39;;;;;;;;;9.67;9.33;;;;;21.04;100.00;100100.38;4855199;29;47164;-83
2022/09/13 06:01:04;;;;;;;;;9.00;9.00;;;;;21.10;100.00;100105.53;4868974;29;45567;-83
2022/09/13 06:03:30;;;;;;;;;9.00;8.67;;;;;21.05;100.00;100091.34;4853143;29;45448;-83
2022/09/13 06:05:57;;;;;;;;;11.00;11.00;;;;;21.07;100.00;100101.13;4871046;29;45424;-83
2022/09/13 06:08:34;;;;;;;;;8.33;7.00;;;;;21.10;100.00;100089.31;4870860;29;46418;-83
2022/09/13 06:11:07;;;;;;;;;7.67;7.33;;;;;21.10;100.00;100089.31;4856646;29;45826;-84
2022/09/13 06:13:37;;;;;;;;;9.00;9.00;;;;;21.15;99.78;100087.31;4857991;29;45405;-85
2022/09/13 06:16:05;;;;;;;;;11.00;11.00;;;;;21.02;99.40;100053.59;4860246;29;44790;-85
2022/09/13 06:18:34;;;;;;;;;7.67;7.67;;;;;21.15;99.51;100071.97;4855323;29;47446;-85
2022/09/13 06:21:06;;;;;;;;;10.67;9.00;;;;;21.17;99.04;100063.81;4872502;29;45442;-85
2022/09/13 06:23:33;;;;;;;;;9.00;9.00;;;;;21.15;98.61;100052.16;4870874;29;45446;-85
2022/09/13 06:26:07;;;;;;;;;7.67;7.67;;;;;21.24;98.16;100057.19;4869698;29;45365;-85
2022/09/13 06:28:34;;;;;;;;;10.00;9.00;;;;;21.34;97.59;100061.25;4869920;29;48198;-85
2022/09/13 06:31:05;;;;;;;;;12.00;9.00;;;;;21.31;96.84;100028.94;4870780;29;45300;-85
2022/09/13 06:33:32;;;;;;;;;8.00;8.00;;;;;21.48;96.65;100035.50;4868995;29;45410;-85
2022/09/13 06:36:07;;;;;;;;;11.00;10.67;;;;;21.75;95.87;100060.50;4869763;29;45410;-86
2022/09/13 06:38:33;;;;;;;;;9.67;9.67;;;;;21.63;95.38;100029.44;4869358;29;47284;-85
2022/09/13 06:41:11;;;;;;;;;8.33;7.33;;;;;21.91;94.60;100049.88;4869763;29;45776;-85
2022/09/13 06:43:37;;;;;;;;;9.67;8.00;;;;;21.78;94.28;100000.84;4870275;29;45396;-85
2022/09/13 06:46:05;;;;;;;;;9.67;8.00;;;;;21.97;93.99;100027.97;4871866;29;45715;-85
2022/09/13 06:48:35;;;;;;;;;7.67;7.67;;;;;21.96;92.17;100015.38;4870690;29;45147;-85
2022/09/13 06:51:02;;;;;;;;;8.67;8.67;;;;;21.90;90.32;99989.47;4869553;29;45509;-86
2022/09/13 06:53:29;;;;;;;;;6.33;6.33;;;;;22.13;89.12;100023.59;4871581;29;45748;-85
2022/09/13 06:56:14;;;;;;;;;8.00;8.00;;;;;21.94;88.41;99988.38;4873473;29;45449;-85
2022/09/13 06:58:42;;;;;;;;;6.33;6.33;;;;;22.00;88.02;99978.22;4874223;29;48052;-86
2022/09/13 07:01:23;;;;;;;;;6.33;6.33;;;;;22.09;86.26;99988.63;4873218;29;45593;-83
2022/09/13 07:04:03;;;;;;;;;7.67;5.67;;;;;22.23;85.23;100006.94;4873039;29;45737;-85
2022/09/13 07:06:36;;;;;;;;;9.00;9.00;;;;;22.13;86.08;99984.81;4874500;29;45242;-86
2022/09/13 07:09:10;;;;;;;;;7.00;6.00;;;;;22.13;85.65;99982.97;4872819;29;45642;-85
2022/09/13 07:11:40;;;;;;;;;8.00;6.00;;;;;22.14;85.88;99973.06;4872791;29;44790;-85
2022/09/13 07:17:27;;;;;;;;;6.67;6.67;;;;;22.36;85.32;99991.94;4874112;29;45384;-84
2022/09/13 07:19:53;;;;;;;;;7.00;7.00;;;;;22.42;83.91;99996.16;4871658;29;45349;-85
2022/09/13 07:22:18;;;;;;;;;8.00;5.33;;;;;22.40;82.31;99988.13;4868442;29;44779;-85
2022/09/13 07:24:46;;;;;;;;;7.00;7.00;;;;;22.42;81.86;99994.34;4873715;29;45391;-84
2022/09/13 07:30:40;;;;;;;;;5.67;5.00;;;;;22.41;81.00;99973.63;4858108;29;45785;-84
2022/09/13 07:33:18;;;;;;;;;9.33;9.00;;;;;22.48;81.62;99990.44;4860952;29;45669;-85
2022/09/13 07:39:06;;;;;;;;;8.33;6.00;;;;;22.49;81.25;99976.84;4859066;29;44958;-84
2022/09/13 07:42:14;;;;;;;;;7.00;6.00;;;;;22.68;80.33;99989.50;4860761;29;45496;-85
2022/09/13 07:44:39;;;;;;;;;7.00;7.00;;;;;22.78;80.52;100004.38;4851051;29;45724;-84
2022/09/13 07:47:05;;;;;;;;;8.67;6.67;;;;;22.62;79.17;99960.84;4835236;29;45731;-85
2022/09/13 07:49:42;;;;;;;;;5.67;5.67;;;;;22.63;79.31;99948.22;4836351;29;45287;-85
2022/09/13 07:52:36;;;;;;;;;6.00;6.00;;;;;23.01;78.91;99992.44;4839061;29;46099;-85
2022/09/13 07:55:23;;;;;;;;;6.67;6.67;;;;;22.81;78.12;99944.59;4853943;29;44835;-84
2022/09/13 07:57:51;;;;;;;;;7.00;7.00;;;;;22.79;78.54;99951.94;4836399;29;45528;-83
2022/09/13 08:00:29;;;;;;;;;5.00;5.00;;;;;23.00;76.54;99966.25;4855418;29;45549;-85
2022/09/13 08:06:53;;;;;;;;;6.33;5.00;;;;;23.20;75.40;99986.97;4903740;23;44943;-85
2022/09/13 08:24:14;;;;;;;;;;;;;;;;;;;;;
2022/09/13 08:30:32;;;;;;;;;11.67;10.67;;;;;23.61;75.21;99962.25;4804546;29;46519;-85
2022/09/13 08:33:06;;;;;;;;;12.00;10.67;;;;;23.49;75.01;99927.63;4795181;29;45779;-85
2022/09/13 08:46:32;;;;;;;;;6.00;6.00;;;;;23.65;71.25;99977.44;4717220;30;44974;-85
2022/09/13 08:59:49;;;;;;;;;;;;;;;;;;;;;
2022/09/13 09:12:38;;;;;;;;;6.67;6.33;;;;;24.26;69.33;100024.94;4727610;30;45572;-84
2022/09/13 09:15:33;;;;;;;;;4.00;4.00;;;;;24.11;68.26;100004.88;4781004;29;45547;-83
2022/09/13 09:25:14;;;;;;;;;12.00;6.67;;;;;24.22;71.08;100017.91;4781067;29;44849;-83
2022/09/13 09:27:43;;;;;;;;;6.00;6.00;;;;;24.33;71.66;100020.03;4835027;29;45553;-83
2022/09/13 09:30:41;;;;;;;;;8.00;7.00;;;;;24.55;72.06;100028.78;4835343;29;45566;-85
2022/09/13 09:33:58;;;;;;;;;;;;;;;;;;;;;
2022/09/13 09:37:03;;;;;;;;;9.67;8.33;;;;;24.94;71.79;100038.44;4795876;29;72967;-85
2022/09/13 09:39:49;;;;;;;;;5.67;5.67;;;;;25.08;70.80;100034.00;4804479;29;45568;-86
2022/09/13 09:42:36;;;;;;;;;7.67;6.33;;;;;25.00;69.27;100006.38;4803392;29;44955;-86
2022/09/13 09:45:23;;;;;;;;;4.00;4.00;;;;;25.25;68.99;100053.00;4798382;29;46640;-85
2022/09/13 09:47:56;;;;;;;;;6.00;5.33;;;;;25.29;67.59;100053.72;4801893;29;45416;-85
2022/09/13 09:50:28;;;;;;;;;6.00;5.00;;;;;25.23;66.82;100044.06;4841707;29;45462;-85
2022/09/13 09:53:08;;;;;;;;;5.33;5.33;;;;;25.19;67.79;100037.00;4838384;29;44838;-86
2022/09/13 10:00:23;;;;;;;;;;;;;;;;;;;;;
2022/09/13 10:05:44;;;;;;;;;6.33;6.33;;;;;25.14;66.23;100026.38;5381735;23;46977;-86
2022/09/13 10:12:02;;;;;;;;;7.33;6.00;;;;;25.10;65.71;100013.03;4888178;29;45987;-85
2022/09/13 10:14:40;;;;;;;;;6.00;6.00;;;;;25.23;65.86;100021.38;4894026;29;45405;-85
2022/09/13 10:17:15;;;;;;;;;7.00;7.00;;;;;25.49;65.42;100053.44;4898212;29;45553;-85
2022/09/13 10:20:03;;;;;;;;;6.67;6.67;;;;;25.57;66.25;100052.94;4891377;29;45563;-85
2022/09/13 10:22:41;;;;;;;;;6.00;6.00;;;;;25.52;66.28;100039.63;4887164;29;45381;-83
2022/09/13 10:25:25;;;;;;;;;5.67;5.67;;;;;25.46;65.42;100022.78;4874695;29;45407;-85
2022/09/13 10:35:18;;;;;;;;;8.00;8.00;;;;;25.71;66.46;100061.19;4913358;29;45650;-84
2022/09/13 10:37:49;;;;;;;;;8.33;8.33;;;;;25.71;67.29;100050.31;4896959;29;45431;-84
2022/09/13 10:40:29;;;;;;;;;9.67;8.67;;;;;25.75;65.67;100051.88;4910833;29;45838;-84
2022/09/13 10:43:03;;;;;;;;;8.33;6.33;;;;;25.72;66.88;100057.50;4877461;29;46997;-84
2022/09/13 10:46:23;;;;;;;;;6.33;6.00;;;;;25.66;66.24;100051.53;4899418;29;45227;-83
2022/09/13 10:49:00;;;;;;;;;5.33;4.33;;;;;25.63;66.05;100043.53;4898753;29;45529;-83
2022/09/13 10:51:28;;;;;;;;;5.00;5.00;;;;;25.58;64.10;100040.22;4896405;29;44943;-83
2022/09/13 10:54:23;;;;;;;;;10.67;9.00;;;;;25.56;64.55;100040.31;4881626;29;45468;-84
2022/09/13 10:56:50;;;;;;;;;5.25;5.25;;;;;25.55;65.13;100039.44;4881329;29;45423;-84
2022/09/13 11:03:31;;;;;;;;;7.50;5.75;;;;;25.69;63.90;100035.91;4893514;29;44980;-84
2022/09/13 11:05:59;;;;;;;;;6.00;6.00;;;;;25.79;63.35;100027.16;4874724;29;47517;-82
2022/09/13 11:08:51;;;;;;;;;9.75;7.50;;;;;25.95;63.28;100025.28;4876185;29;44861;-81
2022/09/13 11:12:05;;;;;;;;;5.50;5.50;;;;;26.13;62.16;100029.59;4797598;29;45620;-82
2022/09/13 11:14:58;;;;;;;;;9.00;9.00;;;;;26.34;61.07;100026.53;4799235;29;45371;-83
2022/09/13 11:17:42;;;;;;;;;7.50;7.50;;;;;26.41;59.88;100032.47;4804320;29;45411;-83
2022/09/13 11:20:35;;;;;;;;;6.00;5.75;;;;;26.36;58.53;100030.03;4798032;29;44871;-83
2022/09/13 11:23:41;;;;;;;;;8.50;6.00;;;;;26.28;59.95;100021.47;4791118;29;45588;-85
2022/09/13 11:26:29;;;;;;;;;7.25;7.25;;;;;26.28;59.37;100026.91;4786376;29;45470;-84
2022/09/13 11:29:12;;;;;;;;;7.50;7.50;;;;;26.10;60.04;99988.06;4802823;29;45392;-84
2022/09/13 11:31:57;;;;;;;;;8.25;7.25;;;;;26.25;59.18;100014.31;4806384;29;44904;-84
2022/09/13 11:34:28;;;;;;;;;8.75;8.00;;;;;26.17;58.95;100008.47;4783029;29;45441;-84
2022/09/13 11:37:18;;;;;;;;;8.00;8.00;;;;;26.08;60.04;100009.94;4798587;29;45426;-84
2022/09/13 11:40:13;;;;;;;;;7.75;7.75;;;;;25.94;59.91;99993.56;4798025;29;46885;-84
2022/09/13 11:43:18;;;;;;;;;7.00;6.33;;;;;26.08;60.09;100014.53;4799179;29;44902;-86
2022/09/13 11:46:09;;;;;;;;;10.00;9.00;;;;;25.99;59.78;100005.03;4762266;29;44985;-85
2022/09/13 11:49:18;;;;;;;;;9.33;9.00;;;;;26.24;61.20;100019.88;4789589;29;45440;-85
2022/09/13 11:51:48;;;;;;;;;10.00;9.33;;;;;26.40;60.65;100004.31;4819498;29;46392;-83
2022/09/13 11:54:28;;;;;;;;;7.33;6.67;;;;;26.30;59.65;99965.00;4804689;29;45560;-84
2022/09/13 11:57:32;;;;;;;;;8.67;8.67;;;;;26.46;57.76;99965.75;4815187;29;45483;-83
2022/09/13 12:04:02;;;;;;;;;6.00;6.00;;;;;26.63;57.15;99972.88;4815831;29;45767;-84
2022/09/13 12:06:42;;;;;;;;;5.67;5.67;;;;;26.67;57.10;99993.50;4817091;29;45543;-84
2022/09/13 12:09:21;;;;;;;;;7.00;7.00;;;;;26.45;57.83;99942.19;4815594;29;44892;-84
2022/09/13 12:15:41;;;;;;;;;8.75;8.75;;;;;26.55;56.99;99953.38;4744546;30;45537;-83
2022/09/13 12:18:53;;;;;;;;;6.00;6.00;;;;;26.80;58.06;99971.75;4729267;30;45506;-83
2022/09/13 12:21:57;;;;;;;;;5.75;4.00;;;;;26.94;55.11;99981.75;4735602;30;45502;-83
2022/09/13 12:32:10;;;;;;;;;4.33;4.33;;;;;27.53;55.02;99981.44;4727219;30;44847;-83
2022/09/13 12:35:25;;;;;;;;;;;;;;;;;;;;;
2022/09/13 12:38:42;;;;;;;;;;;;;;;;;;;;;
2022/09/13 12:45:29;;;;;;;;;6.33;6.33;;;;;27.18;54.49;99948.34;4710107;30;45400;-82
2022/09/13 12:48:32;;;;;;;;;7.67;7.00;;;;;27.08;55.23;99942.63;4717215;29;44995;-82
2022/09/13 12:52:00;;;;;;;;;8.00;7.00;;;;;27.04;55.96;99927.44;4764310;29;45830;-84
2022/09/13 12:55:08;;;;;;;;;3.67;3.33;;;;;27.16;56.28;99928.47;4815201;29;45595;-82
2022/09/13 12:58:47;;;;;;;;;8.00;8.00;;;;;26.99;55.66;99897.75;4816770;29;46891;-83
2022/09/13 13:01:44;;;;;;;;;6.00;6.00;;;;;27.20;55.30;99936.34;4796548;29;45636;-83
2022/09/13 13:04:44;;;;;;;;;7.00;7.00;;;;;27.04;56.19;99894.69;4820732;29;44979;-83
2022/09/13 13:07:24;;;;;;;;;4.67;4.67;;;;;26.94;56.17;99878.06;4800739;29;45923;-84
2022/09/13 13:10:22;;;;;;;;;6.33;6.33;;;;;26.96;56.23;99887.03;4805411;29;44991;-84
2022/09/13 13:16:47;;;;;;;;;6.75;6.00;;;;;27.34;56.09;99900.81;4779222;29;45435;-83
2022/09/13 13:19:41;;;;;;;;;5.50;5.50;;;;;27.39;54.93;99856.81;4764059;29;45336;-82
2022/09/13 13:23:04;;;;;;;;;4.75;4.00;;;;;27.74;53.33;99891.69;4798808;29;44969;-83
2022/09/13 13:26:22;;;;;;;;;;;;;;;;;;;;;
2022/09/13 13:29:35;;;;;;;;;4.67;4.33;;;;;27.71;54.23;99857.28;4812258;29;65119;-84
2022/09/13 13:39:01;;;;;;;;;4.50;3.00;;;;;27.61;54.58;99899.88;4764200;29;45447;-84
2022/09/13 13:42:00;;;;;;;;;5.67;4.67;;;;;27.56;53.92;99896.59;4778478;29;45887;-84
2022/09/13 13:44:49;;;;;;;;;6.67;5.67;;;;;27.54;54.80;99904.00;4749636;29;45872;-85
2022/09/13 13:50:22;;;;;;;;;7.00;5.33;;;;;27.57;54.95;99892.00;4783954;29;45589;-84
2022/09/13 13:53:12;;;;;;;;;;;;;;;;;;;;;
2022/09/13 13:59:50;;;;;;;;;;;;;;;;;;;;;
2022/09/13 14:03:01;;;;;;;;;4.25;4.25;;;;;27.40;54.43;99830.38;4807006;29;68054;-84
2022/09/13 14:06:23;;;;;;;;;5.67;5.67;;;;;27.48;55.37;99837.03;4812996;29;46352;-84
2022/09/13 14:08:59;;;;;;;;;5.00;5.00;;;;;27.64;55.42;99869.59;4822365;29;45380;-85
2022/09/13 14:11:50;;;;;;;;;7.33;7.33;;;;;27.63;55.15;99859.69;4820169;29;44948;-83
2022/09/13 14:14:56;;;;;;;;;4.50;4.50;;;;;27.69;54.62;99864.69;4803942;29;45253;-85
2022/09/13 14:17:30;;;;;;;;;5.00;5.00;;;;;27.78;54.36;99863.16;4822956;29;44861;-84
2022/09/13 14:20:30;;;;;;;;;5.00;5.00;;;;;27.90;55.38;99855.97;4822090;29;45459;-84
2022/09/13 14:23:30;;;;;;;;;4.75;4.75;;;;;28.05;55.00;99853.97;4804527;29;45495;-85
2022/09/13 14:26:23;;;;;;;;;4.00;4.00;;;;;27.99;55.05;99838.88;4825169;29;45340;-85
2022/09/13 14:29:04;;;;;;;;;4.33;4.33;;;;;28.00;54.57;99817.91;4835377;29;45397;-84
2022/09/13 14:31:58;;;;;;;;;;;;;;;;;;;;;
2022/09/13 14:37:49;;;;;;;;;6.33;6.33;;;;;28.42;54.45;99865.81;4872410;29;44968;-84
2022/09/13 14:40:37;;;;;;;;;5.00;5.00;;;;;28.44;54.07;99861.09;4870848;29;45443;-84
2022/09/13 14:43:39;;;;;;;;;5.00;5.00;;;;;28.45;54.43;99864.72;4854695;29;45621;-83
2022/09/13 14:46:23;;;;;;;;;5.33;5.33;;;;;28.26;53.80;99830.53;4844034;29;45328;-82